Time;durP1;ratioP1;P1;durP2;ratioP2;P2;SDS_P1;SDS_P2;PMS_P1;PMS_P2;Temp;Humidity;BMP_temperature;BMP_pressure;BME280_temperature;BME280_humidity;BME280_pressure;Samples;Min_cycle;Max_cycle;Signal;HPM_P1;HPM_P2
2022/05/07 00:00:29;;;;;;;20.20;15.98;;;13.80;99.90;;;;;;5032473;28;20052;-46
2022/05/07 00:02:55;;;;;;;21.88;15.98;;;13.80;99.90;;;;;;5032622;28;20041;-49
2022/05/07 00:05:21;;;;;;;24.23;17.23;;;13.80;99.90;;;;;;5033816;28;20492;-50
2022/05/07 00:07:47;;;;;;;23.00;16.88;;;13.70;99.90;;;;;;5034096;28;20120;-46
2022/05/07 00:10:15;;;;;;;20.45;16.27;;;13.70;99.90;;;;;;5032454;28;20370;-46
2022/05/07 00:12:41;;;;;;;22.15;16.10;;;13.70;99.90;;;;;;5032387;28;20033;-49
2022/05/07 00:15:08;;;;;;;22.33;17.15;;;13.80;99.90;;;;;;5032926;28;20033;-47
2022/05/07 00:20:18;;;;;;;23.85;16.48;;;13.70;99.90;;;;;;5032450;28;20049;-46
2022/05/07 00:22:44;;;;;;;20.90;16.13;;;13.70;99.90;;;;;;5032595;28;20061;-49
2022/05/07 00:25:10;;;;;;;24.30;17.08;;;13.70;99.90;;;;;;5032605;28;20077;-48
2022/05/07 00:27:37;;;;;;;21.38;16.90;;;13.60;99.90;;;;;;5032430;28;20033;-45
2022/05/07 00:30:04;;;;;;;22.23;17.45;;;13.50;99.90;;;;;;5047609;28;20090;-47
2022/05/07 00:32:30;;;;;;;24.98;18.00;;;13.50;99.90;;;;;;5032287;28;20120;-48
2022/05/07 00:34:55;;;;;;;20.88;17.38;;;13.50;99.90;;;;;;5031784;28;20449;-47
2022/05/07 00:37:23;;;;;;;24.90;17.83;;;13.50;99.90;;;;;;5031857;28;20037;-49
2022/05/07 00:39:49;;;;;;;25.40;18.65;;;13.40;99.90;;;;;;5032305;28;20045;-46
2022/05/07 00:42:15;;;;;;;22.67;18.17;;;13.40;99.90;;;;;;5032000;28;20052;-48
2022/05/07 00:44:41;;;;;;;22.95;17.38;;;13.50;99.90;;;;;;5032176;28;20405;-46
2022/05/07 00:47:10;;;;;;;21.85;18.40;;;13.50;99.90;;;;;;5031933;28;20050;-50
2022/05/07 00:49:36;;;;;;;24.83;18.58;;;13.50;99.90;;;;;;5031566;28;20033;-47
2022/05/07 00:52:02;;;;;;;27.35;19.40;;;13.50;99.90;;;;;;5031559;28;20045;-47
2022/05/07 00:54:28;;;;;;;25.92;19.85;;;13.50;99.90;;;;;;5031413;28;20049;-48
2022/05/07 00:56:54;;;;;;;27.50;19.38;;;13.50;99.90;;;;;;5031911;28;20044;-47
2022/05/07 00:59:20;;;;;;;27.77;19.90;;;13.50;99.90;;;;;;5031937;28;20076;-48
2022/05/07 01:01:45;;;;;;;26.77;19.10;;;13.50;99.90;;;;;;5031720;28;20081;-49
2022/05/07 01:04:11;;;;;;;23.80;18.92;;;13.60;99.90;;;;;;5031439;28;20477;-51
2022/05/07 01:06:38;;;;;;;24.42;19.60;;;13.70;99.90;;;;;;5046397;28;20030;-51
2022/05/07 01:09:04;;;;;;;23.75;18.83;;;13.70;99.90;;;;;;5031566;28;20056;-46
2022/05/07 01:11:31;;;;;;;24.70;19.33;;;13.70;99.90;;;;;;5035506;28;20068;-50
2022/05/07 01:13:57;;;;;;;27.88;19.38;;;13.70;99.90;;;;;;5051654;28;20041;-48
2022/05/07 01:16:23;;;;;;;26.63;20.33;;;13.80;99.90;;;;;;5033149;28;20042;-48
2022/05/07 01:18:49;;;;;;;27.95;19.90;;;13.80;99.90;;;;;;5031404;28;20133;-48
2022/05/07 01:21:17;;;;;;;26.88;19.38;;;13.70;99.90;;;;;;5045964;28;20139;-45
2022/05/07 01:23:43;;;;;;;29.48;19.25;;;13.80;99.90;;;;;;5031523;28;20034;-48
2022/05/07 01:26:10;;;;;;;25.45;19.13;;;13.80;99.90;;;;;;5031095;28;20060;-47
2022/05/07 01:28:37;;;;;;;24.80;19.25;;;13.90;99.90;;;;;;5031491;28;20087;-48
2022/05/07 01:31:03;;;;;;;23.50;19.00;;;13.80;99.90;;;;;;5030900;28;20073;-45
2022/05/07 01:33:33;;;;;;;24.30;19.13;;;13.80;99.90;;;;;;5030712;28;20041;-48
2022/05/07 01:36:00;;;;;;;25.55;19.52;;;13.80;99.90;;;;;;5049685;28;20045;-46
2022/05/07 01:38:26;;;;;;;26.30;20.25;;;13.80;99.90;;;;;;5051239;28;20491;-47
2022/05/07 01:40:51;;;;;;;26.15;19.98;;;13.80;99.90;;;;;;5050547;28;20032;-47
2022/05/07 01:43:17;;;;;;;25.48;21.08;;;13.80;99.90;;;;;;5050799;28;20040;-48
2022/05/07 01:45:43;;;;;;;24.45;20.48;;;13.80;99.90;;;;;;5050719;28;20039;-49
2022/05/07 01:48:11;;;;;;;24.65;19.92;;;13.80;99.90;;;;;;5050449;28;20120;-49
2022/05/07 01:50:39;;;;;;;28.88;20.67;;;13.80;99.90;;;;;;5050589;28;20072;-50
2022/05/07 01:53:10;;;;;;;25.42;19.85;;;13.80;99.90;;;;;;5050725;28;20126;-47
2022/05/07 01:55:36;;;;;;;27.38;20.33;;;13.80;99.90;;;;;;5050977;28;20067;-49
2022/05/07 01:58:02;;;;;;;26.00;19.85;;;13.70;99.90;;;;;;5049381;28;20132;-49
2022/05/07 02:00:29;;;;;;;25.58;21.02;;;13.70;99.90;;;;;;5050697;28;20043;-46
2022/05/07 02:02:55;;;;;;;25.98;20.88;;;13.70;99.90;;;;;;5050413;28;20055;-48
2022/05/07 02:05:22;;;;;;;24.80;19.77;;;13.70;99.90;;;;;;5050508;28;20484;-47
2022/05/07 02:07:48;;;;;;;25.25;20.67;;;13.70;99.90;;;;;;5050475;28;20513;-47
2022/05/07 02:10:14;;;;;;;24.52;20.60;;;13.60;99.90;;;;;;5050770;28;20045;-49
2022/05/07 02:12:40;;;;;;;27.45;21.48;;;13.60;99.90;;;;;;5065811;28;20045;-48
2022/05/07 02:15:06;;;;;;;25.48;19.75;;;13.50;99.90;;;;;;5050903;28;20064;-48
2022/05/07 02:17:32;;;;;;;27.88;20.90;;;13.50;99.90;;;;;;5050703;28;20037;-48
2022/05/07 02:19:58;;;;;;;29.27;22.42;;;13.50;99.90;;;;;;5054523;28;20135;-46
2022/05/07 02:22:24;;;;;;;27.35;20.67;;;13.50;99.90;;;;;;5054360;28;20307;-48
2022/05/07 02:24:50;;;;;;;27.60;20.52;;;13.50;99.90;;;;;;5054508;28;20052;-47
2022/05/07 02:27:16;;;;;;;27.15;21.40;;;13.40;99.90;;;;;;5054193;28;20095;-48
2022/05/07 02:29:41;;;;;;;26.05;21.02;;;13.40;99.90;;;;;;5054579;28;20469;-46
2022/05/07 02:32:07;;;;;;;28.20;20.48;;;13.40;99.90;;;;;;5054617;28;20061;-45
2022/05/07 02:34:35;;;;;;;27.63;21.30;;;13.40;99.90;;;;;;5053968;28;20041;-45
2022/05/07 02:37:01;;;;;;;29.63;21.80;;;13.30;99.90;;;;;;5054372;28;20136;-47
2022/05/07 02:39:27;;;;;;;27.60;21.85;;;13.40;99.90;;;;;;5054422;28;20037;-48
2022/05/07 02:44:37;;;;;;;27.05;20.80;;;13.30;99.90;;;;;;5054210;28;20041;-47
2022/05/07 02:47:04;;;;;;;29.70;22.63;;;13.30;99.90;;;;;;5054514;28;20045;-47
2022/05/07 02:49:31;;;;;;;30.75;21.85;;;13.30;99.90;;;;;;5054156;28;20033;-49
2022/05/07 02:51:56;;;;;;;28.25;21.52;;;13.30;99.90;;;;;;5047930;28;20669;-47
2022/05/07 02:54:22;;;;;;;28.02;22.23;;;13.20;99.90;;;;;;5051252;28;20041;-49
2022/05/07 02:56:48;;;;;;;31.77;22.67;;;13.20;99.90;;;;;;5052659;28;20045;-46
2022/05/07 02:59:13;;;;;;;29.17;22.58;;;13.20;99.90;;;;;;5054162;28;20033;-46
2022/05/07 03:01:41;;;;;;;28.83;22.48;;;13.20;99.90;;;;;;5054176;28;20182;-49
2022/05/07 03:04:08;;;;;;;31.13;24.75;;;13.20;99.90;;;;;;5053332;28;20047;-50
2022/05/07 03:06:34;;;;;;;33.45;24.13;;;13.20;99.90;;;;;;5053885;28;20037;-49
2022/05/07 03:09:00;;;;;;;30.02;23.70;;;13.20;99.90;;;;;;5053810;28;20052;-47
2022/05/07 03:11:26;;;;;;;32.78;23.77;;;13.10;99.90;;;;;;5054018;28;20028;-49
2022/05/07 03:13:52;;;;;;;34.13;25.63;;;13.20;99.90;;;;;;5053719;28;20044;-48
2022/05/07 03:16:17;;;;;;;35.03;24.73;;;13.10;99.90;;;;;;5053701;28;20040;-49
2022/05/07 03:18:43;;;;;;;33.30;25.38;;;13.10;99.90;;;;;;5053916;28;20099;-46
2022/05/07 03:21:09;;;;;;;35.55;24.77;;;13.20;99.90;;;;;;5053866;28;20531;-47
2022/05/07 03:23:35;;;;;;;32.10;24.67;;;13.20;99.90;;;;;;5053800;28;20033;-47
2022/05/07 03:26:00;;;;;;;34.97;25.85;;;13.10;99.90;;;;;;5053621;28;20419;-48
2022/05/07 03:28:26;;;;;;;32.72;24.75;;;13.10;99.90;;;;;;5053498;28;20048;-49
2022/05/07 03:30:52;;;;;;;33.42;25.50;;;13.10;99.90;;;;;;5053820;28;20033;-51
2022/05/07 03:33:17;;;;;;;32.00;25.05;;;13.10;99.90;;;;;;5053507;28;20043;-48
2022/05/07 03:35:47;;;;;;;33.15;25.55;;;13.10;99.90;;;;;;5052762;28;20076;-50
2022/05/07 03:38:13;;;;;;;33.05;25.55;;;13.10;99.90;;;;;;5053418;28;20091;-50
2022/05/07 03:40:38;;;;;;;34.00;25.88;;;13.10;99.90;;;;;;5053540;28;20049;-48
2022/05/07 03:43:05;;;;;;;31.95;25.00;;;13.10;99.90;;;;;;5053301;28;20064;-47
2022/05/07 03:45:32;;;;;;;33.63;26.75;;;13.10;99.90;;;;;;5051880;28;20045;-47
2022/05/07 03:47:59;;;;;;;31.48;25.77;;;13.00;99.90;;;;;;5052871;28;20053;-48
2022/05/07 03:50:25;;;;;;;34.05;25.75;;;13.00;99.90;;;;;;5040059;28;20465;-47
2022/05/07 03:55:41;;;;;;;39.10;27.63;;;13.00;99.90;;;;;;5033429;28;20073;-48
2022/05/07 03:58:10;;;;;;;34.97;26.10;;;12.90;99.90;;;;;;5033242;28;20049;-49
2022/05/07 04:00:37;;;;;;;37.42;26.77;;;13.00;99.90;;;;;;5033213;28;20400;-50
2022/05/07 04:03:04;;;;;;;33.78;27.65;;;12.90;99.90;;;;;;5032800;28;20041;-50
2022/05/07 04:05:30;;;;;;;35.63;27.33;;;13.00;99.90;;;;;;5032712;28;20033;-47
2022/05/07 04:07:55;;;;;;;36.28;28.70;;;13.00;99.90;;;;;;5033067;28;20041;-50
2022/05/07 04:10:21;;;;;;;37.53;28.13;;;13.00;99.90;;;;;;5032854;28;20480;-47
2022/05/07 04:12:50;;;;;;;36.03;27.88;;;12.90;99.90;;;;;;5032936;28;20384;-49
2022/05/07 04:15:19;;;;;;;40.95;29.05;;;13.00;99.90;;;;;;5032544;28;20034;-49
2022/05/07 04:17:45;;;;;;;37.88;28.80;;;12.90;99.90;;;;;;5032941;28;20466;-50
2022/05/07 04:20:11;;;;;;;38.17;28.52;;;13.00;99.90;;;;;;5032733;28;20124;-49
2022/05/07 04:22:37;;;;;;;37.35;30.02;;;12.90;99.90;;;;;;5032809;28;20037;-50
2022/05/07 04:25:07;;;;;;;39.63;29.98;;;13.00;99.90;;;;;;5034568;28;20049;-48
2022/05/07 04:27:33;;;;;;;42.42;29.80;;;12.90;99.90;;;;;;5032369;28;20065;-51
2022/05/07 04:29:59;;;;;;;37.53;29.83;;;12.90;99.90;;;;;;5033753;28;20035;-50
2022/05/07 04:32:25;;;;;;;39.15;29.00;;;12.90;99.90;;;;;;5047651;28;20037;-49
2022/05/07 04:34:51;;;;;;;42.88;32.38;;;12.80;99.90;;;;;;5031667;28;20509;-48
2022/05/07 04:37:17;;;;;;;39.42;29.42;;;12.90;99.90;;;;;;5032487;28;20068;-49
2022/05/07 04:39:43;;;;;;;38.47;30.50;;;12.80;99.90;;;;;;5032183;28;20095;-48
2022/05/07 04:42:09;;;;;;;40.05;31.33;;;12.80;99.90;;;;;;5031498;28;20120;-50
2022/05/07 04:44:35;;;;;;;38.78;29.25;;;12.80;99.90;;;;;;5031787;28;20041;-47
2022/05/07 04:47:01;;;;;;;42.80;30.42;;;12.90;99.90;;;;;;5032070;28;20041;-51
2022/05/07 04:49:26;;;;;;;39.08;30.92;;;12.80;99.90;;;;;;5031990;28;20041;-48
2022/05/07 04:51:52;;;;;;;42.45;30.83;;;12.90;99.90;;;;;;5031955;28;20167;-48
2022/05/07 04:54:19;;;;;;;37.30;30.08;;;12.90;99.90;;;;;;5031610;28;20136;-49
2022/05/07 04:56:46;;;;;;;41.95;30.25;;;12.90;99.90;;;;;;5050623;28;20051;-50
2022/05/07 04:59:16;;;;;;;37.63;30.10;;;12.90;99.90;;;;;;5051637;28;20475;-51
2022/05/07 05:01:43;;;;;;;39.20;29.90;;;12.90;99.90;;;;;;5039718;28;20466;-50
2022/05/07 05:04:09;;;;;;;38.92;30.17;;;12.90;99.90;;;;;;5031222;28;20041;-50
2022/05/07 05:06:34;;;;;;;37.83;29.15;;;13.00;99.90;;;;;;5032883;28;20041;-48
2022/05/07 05:09:00;;;;;;;35.95;29.60;;;13.00;99.90;;;;;;5030201;28;20128;-51
2022/05/07 05:11:26;;;;;;;41.58;29.45;;;12.90;99.90;;;;;;5044559;28;20385;-50
2022/05/07 05:13:51;;;;;;;40.75;30.95;;;13.00;99.90;;;;;;5031497;28;20095;-48
2022/05/07 05:16:17;;;;;;;41.20;29.33;;;13.00;99.90;;;;;;5045397;28;20090;-50
2022/05/07 05:18:44;;;;;;;38.13;28.42;;;13.10;99.90;;;;;;5051109;28;20116;-49
2022/05/07 05:21:12;;;;;;;42.38;29.25;;;13.10;99.90;;;;;;5051525;28;20592;-49
2022/05/07 05:23:38;;;;;;;38.33;29.38;;;13.10;99.90;;;;;;5051523;28;20032;-48
2022/05/07 05:26:04;;;;;;;37.85;28.17;;;13.10;99.90;;;;;;5051475;28;20029;-49
2022/05/07 05:28:29;;;;;;;41.03;29.15;;;13.10;99.90;;;;;;5050972;28;20051;-49
2022/05/07 05:30:55;;;;;;;42.90;29.20;;;13.20;99.90;;;;;;5051061;28;20064;-49
2022/05/07 05:33:22;;;;;;;38.55;29.42;;;13.20;99.90;;;;;;5051382;28;20391;-51
2022/05/07 05:35:48;;;;;;;36.90;28.65;;;13.20;99.90;;;;;;5049431;28;20098;-52
2022/05/07 05:38:15;;;;;;;36.95;28.63;;;13.30;99.90;;;;;;5050840;28;20044;-50
2022/05/07 05:40:41;;;;;;;38.78;28.30;;;13.30;99.90;;;;;;5049447;28;20056;-48
2022/05/07 05:43:08;;;;;;;35.08;26.10;;;13.40;99.90;;;;;;5051073;28;20048;-47
2022/05/07 05:45:34;;;;;;;38.50;27.05;;;13.40;99.90;;;;;;5049821;28;20044;-50
2022/05/07 05:48:01;;;;;;;33.65;25.13;;;13.50;99.90;;;;;;5050565;28;20132;-47
2022/05/07 05:50:30;;;;;;;36.90;26.10;;;13.60;99.90;;;;;;5050769;28;20545;-50
2022/05/07 05:52:58;;;;;;;34.95;25.40;;;13.60;99.90;;;;;;5046426;28;20056;-48
2022/05/07 05:55:24;;;;;;;34.63;26.17;;;13.60;99.90;;;;;;5031814;28;20362;-48
2022/05/07 05:57:50;;;;;;;32.15;24.63;;;13.60;99.90;;;;;;5028695;28;20102;-48
2022/05/07 06:00:16;;;;;;;29.77;24.20;;;13.60;99.90;;;;;;5028908;28;20401;-49
2022/05/07 06:02:44;;;;;;;41.65;23.88;;;13.70;99.90;;;;;;5030798;28;20052;-49
2022/05/07 06:05:13;;;;;;;31.88;20.88;;;13.70;99.90;;;;;;5029954;28;20087;-50
2022/05/07 06:07:40;;;;;;;29.65;21.45;;;13.70;99.90;;;;;;5030726;28;20164;-48
2022/05/07 06:10:06;;;;;;;26.30;20.00;;;13.70;99.90;;;;;;5030879;28;20038;-50
2022/05/07 06:12:32;;;;;;;28.98;22.25;;;13.80;99.90;;;;;;5030887;28;20057;-50
2022/05/07 06:14:58;;;;;;;27.75;21.63;;;13.80;99.90;;;;;;5049364;28;20468;-47
2022/05/07 06:17:25;;;;;;;30.60;20.13;;;13.90;99.90;;;;;;5050248;28;20107;-48
2022/05/07 06:19:51;;;;;;;24.90;18.77;;;13.90;99.90;;;;;;5050321;28;20070;-47
2022/05/07 06:22:17;;;;;;;28.25;19.17;;;14.00;99.90;;;;;;5050716;28;20060;-48
2022/05/07 06:27:33;;;;;;;32.45;18.20;;;14.00;99.90;;;;;;5050621;28;20090;-47
2022/05/07 06:30:03;;;;;;;26.65;17.50;;;14.00;99.90;;;;;;5050603;28;20049;-47
2022/05/07 06:32:33;;;;;;;28.73;17.85;;;14.10;99.90;;;;;;5050143;28;20041;-47
2022/05/07 06:34:59;;;;;;;22.60;17.35;;;14.10;99.90;;;;;;5049733;28;20396;-49
2022/05/07 06:37:25;;;;;;;27.27;18.40;;;14.10;99.90;;;;;;5050537;28;20033;-49
2022/05/07 06:39:51;;;;;;;24.67;17.75;;;14.20;99.90;;;;;;5050587;28;20071;-49
2022/05/07 06:42:17;;;;;;;21.95;16.70;;;14.20;99.90;;;;;;5045442;28;20044;-50
2022/05/07 06:44:42;;;;;;;23.85;16.73;;;14.30;99.90;;;;;;5035737;28;20464;-50
2022/05/07 06:47:08;;;;;;;25.27;16.90;;;14.30;99.90;;;;;;5043733;28;20038;-48
2022/05/07 06:49:33;;;;;;;20.67;16.42;;;14.30;99.90;;;;;;5050323;28;20384;-46
2022/05/07 06:51:59;;;;;;;25.05;17.50;;;14.30;99.90;;;;;;5040233;28;20397;-47
2022/05/07 06:54:25;;;;;;;22.70;16.58;;;14.20;99.90;;;;;;5030339;28;20488;-48
2022/05/07 06:56:50;;;;;;;20.67;16.77;;;14.30;99.90;;;;;;5028808;28;20143;-48
2022/05/07 06:59:16;;;;;;;21.08;16.50;;;14.30;99.90;;;;;;5025845;28;20045;-48
2022/05/07 07:01:42;;;;;;;24.33;17.05;;;14.40;99.90;;;;;;5025318;28;20511;-48
2022/05/07 07:04:08;;;;;;;21.95;16.45;;;14.50;99.90;;;;;;5028788;28;20036;-51
2022/05/07 07:06:33;;;;;;;21.13;16.73;;;14.80;99.90;;;;;;5032251;28;20041;-47
2022/05/07 07:08:59;;;;;;;26.10;17.17;;;14.80;99.90;;;;;;5033461;28;20041;-49
2022/05/07 07:11:25;;;;;;;20.08;15.48;;;14.90;99.90;;;;;;5033450;28;20021;-47
2022/05/07 07:13:51;;;;;;;22.58;15.82;;;14.90;99.90;;;;;;5036547;28;20042;-47
2022/05/07 07:16:17;;;;;;;23.05;15.02;;;15.00;99.90;;;;;;5030103;28;20032;-48
2022/05/07 07:18:46;;;;;;;21.40;15.00;;;15.00;99.90;;;;;;5036217;28;20037;-49
2022/05/07 07:21:12;;;;;;;24.52;14.88;;;15.30;99.90;;;;;;5028487;28;20651;-47
2022/05/07 07:23:38;;;;;;;19.20;14.48;;;14.90;99.90;;;;;;5033516;28;20099;-46
2022/05/07 07:26:04;;;;;;;21.17;13.88;;;15.10;99.90;;;;;;5032180;28;20033;-50
2022/05/07 07:28:31;;;;;;;23.15;13.40;;;15.10;99.90;;;;;;5032318;28;20216;-49
2022/05/07 07:30:57;;;;;;;25.83;14.75;;;15.10;99.90;;;;;;5029820;28;20033;-46
2022/05/07 07:33:23;;;;;;;24.80;14.85;;;15.20;99.90;;;;;;5029702;28;20497;-47
2022/05/07 07:35:49;;;;;;;23.45;14.75;;;15.30;99.90;;;;;;5033271;28;20111;-47
2022/05/07 07:38:15;;;;;;;22.88;14.40;;;15.30;99.90;;;;;;5027864;28;20477;-50
2022/05/07 07:40:41;;;;;;;24.83;15.85;;;15.40;99.90;;;;;;5033213;28;20550;-51
2022/05/07 07:43:07;;;;;;;26.08;14.93;;;15.40;99.90;;;;;;5030036;28;20112;-52
2022/05/07 07:48:16;;;;;;;26.48;15.15;;;15.30;99.90;;;;;;5034870;28;20056;-48
2022/05/07 07:50:45;;;;;;;27.27;16.20;;;15.50;99.90;;;;;;5027622;28;20045;-48
2022/05/07 07:53:12;;;;;;;27.88;15.43;;;15.60;99.90;;;;;;5027545;28;20091;-48
2022/05/07 07:55:38;;;;;;;24.17;16.23;;;15.60;99.90;;;;;;5034801;28;20428;-50
2022/05/07 07:58:06;;;;;;;26.98;17.20;;;15.60;99.90;;;;;;5018419;28;20041;-49
2022/05/07 08:00:33;;;;;;;31.15;17.95;;;15.60;99.90;;;;;;5028821;28;20523;-48
2022/05/07 08:03:03;;;;;;;29.50;17.40;;;15.80;99.90;;;;;;5031163;28;20508;-48
2022/05/07 08:05:36;;;;;;;24.83;15.90;;;15.80;99.90;;;;;;5028632;28;20033;-49
2022/05/07 08:13:35;;;;;;;23.98;15.32;;;15.80;99.90;;;;;;5031881;28;20133;-50
2022/05/07 08:16:02;;;;;;;27.80;15.13;;;15.90;99.90;;;;;;5030995;28;20067;-52
2022/05/07 08:18:28;;;;;;;27.85;15.52;;;16.10;99.90;;;;;;5032869;28;20493;-49
2022/05/07 08:20:55;;;;;;;25.95;15.10;;;15.90;99.90;;;;;;5034221;28;20130;-50
2022/05/07 08:23:22;;;;;;;24.58;14.48;;;16.00;99.90;;;;;;5033122;28;20048;-48
2022/05/07 08:25:48;;;;;;;28.98;16.05;;;16.00;99.90;;;;;;5039440;28;20384;-51
2022/05/07 08:28:15;;;;;;;25.30;15.40;;;16.20;99.90;;;;;;5032361;28;20067;-48
2022/05/07 08:30:41;;;;;;;29.55;16.05;;;16.10;99.90;;;;;;5033863;28;20049;-52
2022/05/07 08:33:07;;;;;;;32.78;15.93;;;16.30;99.90;;;;;;5030399;28;20037;-48
2022/05/07 08:35:33;;;;;;;27.67;15.95;;;16.20;99.90;;;;;;5030311;28;20036;-49
2022/05/07 08:37:59;;;;;;;32.05;16.27;;;16.30;99.90;;;;;;5031401;28;20033;-47
2022/05/07 08:40:27;;;;;;;33.65;16.52;;;16.40;99.90;;;;;;5030740;28;20037;-49
2022/05/07 08:42:57;;;;;;;32.90;16.80;;;16.60;99.90;;;;;;5032179;28;20032;-50
2022/05/07 08:45:23;;;;;;;35.10;17.52;;;16.70;99.90;;;;;;5029210;28;20112;-51
2022/05/07 08:47:53;;;;;;;31.08;18.38;;;16.80;99.90;;;;;;5032485;28;20045;-49
2022/05/07 08:50:19;;;;;;;36.05;19.05;;;16.80;99.90;;;;;;5033051;28;20508;-48
2022/05/07 08:52:46;;;;;;;36.08;18.27;;;16.80;99.90;;;;;;5043173;28;20382;-48
2022/05/07 08:55:19;;;;;;;36.95;19.35;;;16.90;99.90;;;;;;5045743;28;20045;-46
2022/05/07 08:57:47;;;;;;;34.08;19.23;;;16.80;99.90;;;;;;5047818;28;20048;-47
2022/05/07 09:00:15;;;;;;;39.13;19.23;;;16.80;99.90;;;;;;5045876;28;20044;-47
2022/05/07 09:02:48;;;;;;;33.05;19.13;;;16.80;99.90;;;;;;5049756;28;20484;-51
2022/05/07 09:05:18;;;;;;;34.83;19.67;;;17.20;99.90;;;;;;5047785;28;20036;-51
2022/05/07 09:07:56;;;;;;;34.72;19.35;;;17.40;99.90;;;;;;5048514;28;20034;-50
2022/05/07 09:10:28;;;;;;;30.77;16.65;;;17.60;99.90;;;;;;5046041;28;20115;-46
2022/05/07 09:13:14;;;;;;;33.13;17.88;;;17.60;99.90;;;;;;5041289;28;20038;-48
2022/05/07 09:15:57;;;;;;;30.60;17.35;;;18.00;99.90;;;;;;5047030;28;20060;-52
2022/05/07 09:18:25;;;;;;;31.55;17.85;;;17.90;99.90;;;;;;5048432;28;20527;-51
2022/05/07 09:21:16;;;;;;;29.73;18.00;;;18.30;99.90;;;;;;5050179;28;20103;-48
2022/05/07 09:24:07;;;;;;;26.05;16.25;;;18.40;99.90;;;;;;5046071;28;20041;-49
2022/05/07 09:26:39;;;;;;;34.80;18.58;;;18.30;99.90;;;;;;5038030;28;20084;-51
2022/05/07 09:29:08;;;;;;;32.58;17.45;;;18.30;99.90;;;;;;5044615;28;20477;-48
2022/05/07 09:31:35;;;;;;;31.45;17.65;;;18.30;99.90;;;;;;5049782;28;20162;-50
2022/05/07 09:36:57;;;;;;;35.55;19.58;;;18.30;99.90;;;;;;5033315;28;20452;-50
2022/05/07 09:39:30;;;;;;;34.50;18.50;;;18.20;99.90;;;;;;5031303;28;20041;-51
2022/05/07 09:41:58;;;;;;;33.05;18.67;;;18.00;99.90;;;;;;5031979;28;20502;-50
2022/05/07 09:44:27;;;;;;;32.97;20.05;;;18.10;99.90;;;;;;5049694;28;20037;-48
2022/05/07 09:46:54;;;;;;;36.50;19.15;;;18.00;99.90;;;;;;5051142;28;20134;-47
2022/05/07 09:49:22;;;;;;;35.75;20.27;;;18.00;99.90;;;;;;5032923;28;20045;-48
2022/05/07 09:51:50;;;;;;;37.25;20.50;;;18.00;99.90;;;;;;5031874;28;20037;-49
2022/05/07 09:59:48;;;;;;;33.17;20.67;;;18.40;99.90;;;;;;5029696;28;20073;-50
2022/05/07 10:02:58;;;;;;;33.72;20.90;;;18.50;99.90;;;;;;5031951;28;20112;-50
2022/05/07 10:05:36;;;;;;;35.10;20.67;;;18.70;99.90;;;;;;5030167;28;20115;-49
2022/05/07 10:08:12;;;;;;;40.13;21.23;;;18.50;99.90;;;;;;5036104;28;20126;-49
2022/05/07 10:10:40;;;;;;;34.97;21.77;;;18.50;99.90;;;;;;5035457;28;20117;-49
2022/05/07 10:13:07;;;;;;;37.75;22.10;;;18.30;99.90;;;;;;5034058;28;20549;-50
2022/05/07 10:15:34;;;;;;;36.20;22.35;;;18.40;99.90;;;;;;5041842;28;20111;-52
2022/05/07 10:18:07;;;;;;;36.45;22.73;;;18.10;99.90;;;;;;5049705;28;20051;-49
2022/05/07 10:20:47;;;;;;;38.58;22.73;;;18.10;99.90;;;;;;5050280;28;20066;-49
2022/05/07 10:23:14;;;;;;;36.60;23.35;;;17.90;99.90;;;;;;5050479;28;20107;-50
2022/05/07 10:25:54;;;;;;;37.58;22.60;;;18.00;99.90;;;;;;5050415;28;20041;-48
2022/05/07 10:28:22;;;;;;;37.35;22.88;;;18.00;99.90;;;;;;5050180;28;20179;-50
2022/05/07 10:30:52;;;;;;;41.72;24.33;;;18.20;99.90;;;;;;5050336;28;20039;-49
2022/05/07 10:33:19;;;;;;;36.03;22.73;;;18.30;99.90;;;;;;5050290;28;20072;-50
2022/05/07 10:35:47;;;;;;;39.85;22.48;;;18.30;99.90;;;;;;5049440;28;20033;-48
2022/05/07 10:38:15;;;;;;;34.03;21.55;;;18.40;99.90;;;;;;5050100;28;20045;-51
2022/05/07 10:40:51;;;;;;;35.88;20.92;;;18.30;99.90;;;;;;5054024;28;20055;-50
2022/05/07 10:43:33;;;;;;;33.60;20.67;;;18.30;99.90;;;;;;5054481;28;20049;-49
2022/05/07 10:46:06;;;;;;;32.38;21.15;;;18.30;99.90;;;;;;5054430;28;20041;-49
2022/05/07 10:48:52;;;;;;;33.50;22.33;;;18.30;99.90;;;;;;5053799;28;20044;-46
2022/05/07 10:51:19;;;;;;;32.30;20.08;;;18.40;99.90;;;;;;5054111;28;20075;-48
2022/05/07 10:53:45;;;;;;;28.63;18.90;;;18.50;99.90;;;;;;5053785;28;20044;-51
2022/05/07 10:56:21;;;;;;;28.42;18.45;;;18.50;99.90;;;;;;5054333;28;20041;-49
2022/05/07 10:58:48;;;;;;;28.88;19.15;;;18.50;99.90;;;;;;5054045;28;20065;-47
2022/05/07 11:01:16;;;;;;;30.33;19.73;;;18.50;99.90;;;;;;5054058;28;20032;-48
2022/05/07 11:03:41;;;;;;;30.40;19.08;;;18.30;99.90;;;;;;5054028;28;20032;-49
2022/05/07 11:06:07;;;;;;;28.58;19.00;;;18.60;99.90;;;;;;5053159;28;20032;-51
2022/05/07 11:08:36;;;;;;;25.92;18.60;;;18.90;99.90;;;;;;5053358;28;20041;-50
2022/05/07 11:11:10;;;;;;;31.88;21.33;;;19.10;99.90;;;;;;5053771;28;20037;-50
2022/05/07 11:13:55;;;;;;;27.88;20.00;;;19.50;99.90;;;;;;5053986;28;20040;-47
2022/05/07 11:16:22;;;;;;;30.70;20.33;;;19.70;99.90;;;;;;5054023;28;20452;-49
2022/05/07 11:18:51;;;;;;;26.45;20.10;;;19.70;99.90;;;;;;5053937;28;20044;-50
2022/05/07 11:21:21;;;;;;;27.52;18.98;;;19.80;99.90;;;;;;5053834;28;20589;-53
2022/05/07 11:23:59;;;;;;;27.42;19.92;;;19.90;99.90;;;;;;5053306;28;20037;-50
2022/05/07 11:26:26;;;;;;;31.42;20.77;;;19.80;99.90;;;;;;5053426;28;20093;-48
2022/05/07 11:28:52;;;;;;;27.15;19.60;;;19.90;99.90;;;;;;5053435;28;20044;-49
2022/05/07 11:31:32;;;;;;;25.35;18.67;;;20.20;99.90;;;;;;5053580;28;20032;-50
2022/05/07 11:34:06;;;;;;;24.67;18.55;;;20.60;99.90;;;;;;5053164;28;20036;-51
2022/05/07 11:36:33;;;;;;;22.70;17.27;;;20.50;99.90;;;;;;5052812;28;20392;-47
2022/05/07 11:39:04;;;;;;;22.15;16.63;;;20.50;99.90;;;;;;5053117;28;20496;-48
2022/05/07 11:41:31;;;;;;;24.08;18.40;;;20.50;99.90;;;;;;5053438;28;20503;-48
2022/05/07 11:46:53;;;;;;;23.65;18.90;;;20.40;99.90;;;;;;5053382;28;20127;-50
2022/05/07 11:49:33;;;;;;;25.08;19.30;;;20.40;99.90;;;;;;5034851;28;20045;-49
2022/05/07 11:52:12;;;;;;;24.63;17.98;;;20.20;99.90;;;;;;5051671;28;20412;-50
2022/05/07 11:54:49;;;;;;;24.80;19.15;;;20.60;99.90;;;;;;5051506;28;20099;-52
2022/05/07 11:57:29;;;;;;;25.40;18.10;;;20.40;99.90;;;;;;5053242;28;20072;-50
2022/05/07 11:59:55;;;;;;;27.08;19.33;;;20.40;99.90;;;;;;5052508;28;20115;-47
2022/05/07 12:02:20;;;;;;;24.38;17.50;;;20.90;99.90;;;;;;5051729;28;20040;-47
2022/05/07 12:04:56;;;;;;;28.58;18.98;;;21.40;99.90;;;;;;5050508;28;20045;-50
2022/05/07 12:07:22;;;;;;;35.20;23.33;;;21.40;99.90;;;;;;5042162;28;20055;-50
2022/05/07 12:09:47;;;;;;;33.22;22.38;;;21.40;99.90;;;;;;5040569;28;20473;-49
2022/05/07 12:12:13;;;;;;;32.58;23.75;;;21.30;99.90;;;;;;5044623;28;20452;-50
2022/05/07 12:14:40;;;;;;;31.38;22.38;;;21.10;99.90;;;;;;5044024;28;20041;-48
2022/05/07 12:19:50;;;;;;;28.77;21.27;;;21.00;99.90;;;;;;5040549;28;20068;-49
2022/05/07 12:30:28;;;;;;;30.42;22.42;;;20.30;99.90;;;;;;5045314;28;20056;-49
2022/05/07 12:32:55;;;;;;;34.95;21.77;;;20.40;99.90;;;;;;5042500;28;20025;-51
2022/05/07 12:35:21;;;;;;;30.40;21.70;;;20.70;99.90;;;;;;5040676;28;20044;-51
2022/05/07 12:37:47;;;;;;;37.65;22.08;;;21.20;99.90;;;;;;5042665;28;20048;-47
2022/05/07 12:40:12;;;;;;;30.08;20.75;;;21.60;99.90;;;;;;5041598;28;20558;-50
2022/05/07 12:42:39;;;;;;;28.52;20.27;;;21.60;99.90;;;;;;5044290;28;20083;-48
2022/05/07 12:45:06;;;;;;;28.95;19.17;;;22.10;99.90;;;;;;5042676;28;20043;-51
2022/05/07 12:47:32;;;;;;;28.65;19.13;;;22.30;99.90;;;;;;5042456;28;20131;-47
2022/05/07 12:49:57;;;;;;;28.65;18.95;;;22.50;99.90;;;;;;5038134;28;20033;-46
2022/05/07 12:52:23;;;;;;;26.15;18.27;;;22.60;99.90;;;;;;5042106;28;20400;-49
2022/05/07 12:54:50;;;;;;;26.10;18.02;;;22.30;99.90;;;;;;5043711;28;20455;-45
2022/05/07 12:57:15;;;;;;;27.00;18.27;;;22.10;99.90;;;;;;5043695;28;20465;-47
2022/05/07 12:59:42;;;;;;;27.42;18.42;;;21.50;99.90;;;;;;5042990;28;20043;-49
2022/05/07 13:02:11;;;;;;;29.42;19.33;;;21.30;99.90;;;;;;5049325;28;20037;-49
2022/05/07 13:04:37;;;;;;;28.88;18.17;;;21.20;99.90;;;;;;5047157;28;20037;-47
2022/05/07 13:07:03;;;;;;;25.75;17.75;;;21.70;99.90;;;;;;5048581;28;20619;-46
2022/05/07 13:09:29;;;;;;;26.67;17.95;;;21.80;99.90;;;;;;5048947;28;20543;-48
2022/05/07 13:11:56;;;;;;;25.40;17.55;;;21.50;99.90;;;;;;5047064;28;20095;-46